sensor_id;sensor_type;location;lat;lon;timestamp;temperature;humidity
41344;DHT22;27089;50.022;7.604;2023-02-22T00:01:09;2.80;99.90
41344;DHT22;27089;50.022;7.604;2023-02-22T00:03:48;2.70;99.90
41344;DHT22;27089;50.022;7.604;2023-02-22T00:06:18;2.60;99.90
41344;DHT22;27089;50.022;7.604;2023-02-22T00:08:47;2.50;99.90
41344;DHT22;27089;50.022;7.604;2023-02-22T00:11:14;2.40;99.90
41344;DHT22;27089;50.022;7.604;2023-02-22T00:13:41;2.40;99.90
41344;DHT22;27089;50.022;7.604;2023-02-22T00:16:13;2.30;99.90
41344;DHT22;27089;50.022;7.604;2023-02-22T00:18:41;2.30;99.90
41344;DHT22;27089;50.022;7.604;2023-02-22T00:21:09;2.40;99.90
41344;DHT22;27089;50.022;7.604;2023-02-22T00:23:40;2.40;99.90
41344;DHT22;27089;50.022;7.604;2023-02-22T00:26:11;2.30;99.90
41344;DHT22;27089;50.022;7.604;2023-02-22T00:28:43;2.30;99.90
41344;DHT22;27089;50.022;7.604;2023-02-22T00:31:10;2.30;99.90
41344;DHT22;27089;50.022;7.604;2023-02-22T00:33:37;2.30;99.90
41344;DHT22;27089;50.022;7.604;2023-02-22T00:36:05;2.30;99.90
41344;DHT22;27089;50.022;7.604;2023-02-22T00:38:32;2.30;99.90
41344;DHT22;27089;50.022;7.604;2023-02-22T00:41:00;2.30;99.90
41344;DHT22;27089;50.022;7.604;2023-02-22T00:43:27;2.20;99.90
41344;DHT22;27089;50.022;7.604;2023-02-22T00:45:54;2.20;99.90
41344;DHT22;27089;50.022;7.604;2023-02-22T00:48:22;2.30;99.90
41344;DHT22;27089;50.022;7.604;2023-02-22T00:50:49;2.30;99.90
41344;DHT22;27089;50.022;7.604;2023-02-22T00:53:20;2.30;99.90
41344;DHT22;27089;50.022;7.604;2023-02-22T00:55:47;2.30;99.90
41344;DHT22;27089;50.022;7.604;2023-02-22T00:58:15;2.30;99.90
41344;DHT22;27089;50.022;7.604;2023-02-22T01:00:43;2.20;99.90
41344;DHT22;27089;50.022;7.604;2023-02-22T01:03:12;2.20;99.90
41344;DHT22;27089;50.022;7.604;2023-02-22T01:05:40;2.10;99.90
41344;DHT22;27089;50.022;7.604;2023-02-22T01:08:09;2.20;99.90
41344;DHT22;27089;50.022;7.604;2023-02-22T01:10:37;2.10;99.90
41344;DHT22;27089;50.022;7.604;2023-02-22T01:13:05;2.10;99.90
41344;DHT22;27089;50.022;7.604;2023-02-22T01:15:39;2.10;99.90
41344;DHT22;27089;50.022;7.604;2023-02-22T01:18:07;2.00;99.90
41344;DHT22;27089;50.022;7.604;2023-02-22T01:20:34;2.00;99.90
41344;DHT22;27089;50.022;7.604;2023-02-22T01:23:02;1.90;99.90
41344;DHT22;27089;50.022;7.604;2023-02-22T01:25:31;1.90;99.90
41344;DHT22;27089;50.022;7.604;2023-02-22T01:28:00;1.90;99.90
41344;DHT22;27089;50.022;7.604;2023-02-22T01:30:29;1.90;99.90
41344;DHT22;27089;50.022;7.604;2023-02-22T01:32:59;2.00;99.90
41344;DHT22;27089;50.022;7.604;2023-02-22T01:35:32;2.00;99.90
41344;DHT22;27089;50.022;7.604;2023-02-22T01:38:00;2.00;99.90
41344;DHT22;27089;50.022;7.604;2023-02-22T01:40:29;2.00;99.90
41344;DHT22;27089;50.022;7.604;2023-02-22T01:42:59;2.00;99.90
41344;DHT22;27089;50.022;7.604;2023-02-22T01:45:58;2.10;99.90
41344;DHT22;27089;50.022;7.604;2023-02-22T01:48:34;2.00;99.90
41344;DHT22;27089;50.022;7.604;2023-02-22T01:51:07;1.90;99.90
41344;DHT22;27089;50.022;7.604;2023-02-22T01:53:39;1.80;99.90
41344;DHT22;27089;50.022;7.604;2023-02-22T01:56:07;1.80;99.90
41344;DHT22;27089;50.022;7.604;2023-02-22T01:58:35;1.80;99.90
41344;DHT22;27089;50.022;7.604;2023-02-22T02:01:04;1.80;99.90
41344;DHT22;27089;50.022;7.604;2023-02-22T02:03:36;1.70;99.90
41344;DHT22;27089;50.022;7.604;2023-02-22T02:06:06;1.70;99.90
41344;DHT22;27089;50.022;7.604;2023-02-22T02:08:43;1.60;99.90
41344;DHT22;27089;50.022;7.604;2023-02-22T02:11:15;1.60;99.90
41344;DHT22;27089;50.022;7.604;2023-02-22T02:13:43;1.60;99.90
41344;DHT22;27089;50.022;7.604;2023-02-22T02:16:10;1.60;99.90
41344;DHT22;27089;50.022;7.604;2023-02-22T02:18:39;1.60;99.90
41344;DHT22;27089;50.022;7.604;2023-02-22T02:27:18;1.60;99.90
41344;DHT22;27089;50.022;7.604;2023-02-22T02:30:31;1.60;99.90
41344;DHT22;27089;50.022;7.604;2023-02-22T02:33:05;1.60;99.90
41344;DHT22;27089;50.022;7.604;2023-02-22T02:35:45;1.60;99.90
41344;DHT22;27089;50.022;7.604;2023-02-22T02:38:20;1.60;99.90
41344;DHT22;27089;50.022;7.604;2023-02-22T02:40:52;1.50;99.90
41344;DHT22;27089;50.022;7.604;2023-02-22T02:43:30;1.50;99.90
41344;DHT22;27089;50.022;7.604;2023-02-22T02:46:02;1.50;99.90
41344;DHT22;27089;50.022;7.604;2023-02-22T02:48:34;1.40;99.90
41344;DHT22;27089;50.022;7.604;2023-02-22T02:51:05;1.50;99.90
41344;DHT22;27089;50.022;7.604;2023-02-22T02:53:36;1.50;99.90
41344;DHT22;27089;50.022;7.604;2023-02-22T02:56:04;1.60;99.90
41344;DHT22;27089;50.022;7.604;2023-02-22T02:58:32;1.60;99.90
41344;DHT22;27089;50.022;7.604;2023-02-22T03:01:02;1.50;99.90
41344;DHT22;27089;50.022;7.604;2023-02-22T03:03:57;1.50;99.90
41344;DHT22;27089;50.022;7.604;2023-02-22T03:09:39;1.50;99.90
41344;DHT22;27089;50.022;7.604;2023-02-22T03:12:18;1.50;99.90
41344;DHT22;27089;50.022;7.604;2023-02-22T03:14:53;1.50;99.90
41344;DHT22;27089;50.022;7.604;2023-02-22T03:17:31;1.50;99.90
41344;DHT22;27089;50.022;7.604;2023-02-22T03:20:09;1.50;99.90
41344;DHT22;27089;50.022;7.604;2023-02-22T03:22:42;1.50;99.90
41344;DHT22;27089;50.022;7.604;2023-02-22T03:25:17;1.60;99.90
41344;DHT22;27089;50.022;7.604;2023-02-22T03:27:48;1.50;99.90
41344;DHT22;27089;50.022;7.604;2023-02-22T03:30:21;1.50;99.90
41344;DHT22;27089;50.022;7.604;2023-02-22T03:32:53;1.50;99.90
41344;DHT22;27089;50.022;7.604;2023-02-22T03:35:25;1.50;99.90
41344;DHT22;27089;50.022;7.604;2023-02-22T03:37:57;1.40;99.90
41344;DHT22;27089;50.022;7.604;2023-02-22T03:40:28;1.40;99.90
41344;DHT22;27089;50.022;7.604;2023-02-22T03:43:00;1.50;99.90
41344;DHT22;27089;50.022;7.604;2023-02-22T03:45:28;1.60;99.90
41344;DHT22;27089;50.022;7.604;2023-02-22T03:48:02;1.60;99.90
41344;DHT22;27089;50.022;7.604;2023-02-22T03:50:34;1.60;99.90
41344;DHT22;27089;50.022;7.604;2023-02-22T03:53:02;1.60;99.90
41344;DHT22;27089;50.022;7.604;2023-02-22T03:55:30;1.60;99.90
41344;DHT22;27089;50.022;7.604;2023-02-22T03:57:58;1.60;99.90
41344;DHT22;27089;50.022;7.604;2023-02-22T04:00:30;1.60;99.90
41344;DHT22;27089;50.022;7.604;2023-02-22T04:02:58;1.50;99.90
41344;DHT22;27089;50.022;7.604;2023-02-22T04:05:25;1.60;99.90
41344;DHT22;27089;50.022;7.604;2023-02-22T04:07:54;1.70;99.90
41344;DHT22;27089;50.022;7.604;2023-02-22T04:10:22;1.70;99.90
41344;DHT22;27089;50.022;7.604;2023-02-22T04:12:50;1.70;99.90
41344;DHT22;27089;50.022;7.604;2023-02-22T04:15:19;1.70;99.90
41344;DHT22;27089;50.022;7.604;2023-02-22T04:17:46;1.70;99.90
41344;DHT22;27089;50.022;7.604;2023-02-22T04:20:14;1.80;99.90
41344;DHT22;27089;50.022;7.604;2023-02-22T04:22:44;1.80;99.90
41344;DHT22;27089;50.022;7.604;2023-02-22T04:25:13;1.80;99.90
41344;DHT22;27089;50.022;7.604;2023-02-22T04:27:40;1.70;99.90
41344;DHT22;27089;50.022;7.604;2023-02-22T04:30:08;1.60;99.90
41344;DHT22;27089;50.022;7.604;2023-02-22T04:32:36;1.60;99.90
41344;DHT22;27089;50.022;7.604;2023-02-22T04:35:03;1.60;99.90
41344;DHT22;27089;50.022;7.604;2023-02-22T04:37:30;1.60;99.90
41344;DHT22;27089;50.022;7.604;2023-02-22T04:39:59;1.50;99.90
41344;DHT22;27089;50.022;7.604;2023-02-22T04:42:27;1.50;99.90
41344;DHT22;27089;50.022;7.604;2023-02-22T04:44:54;1.50;99.90
41344;DHT22;27089;50.022;7.604;2023-02-22T04:47:21;1.50;99.90
41344;DHT22;27089;50.022;7.604;2023-02-22T04:49:48;1.60;99.90
41344;DHT22;27089;50.022;7.604;2023-02-22T04:52:15;1.60;99.90
41344;DHT22;27089;50.022;7.604;2023-02-22T04:54:42;1.60;99.90
41344;DHT22;27089;50.022;7.604;2023-02-22T04:57:09;1.60;99.90
41344;DHT22;27089;50.022;7.604;2023-02-22T04:59:37;1.60;99.90
41344;DHT22;27089;50.022;7.604;2023-02-22T05:02:05;1.60;99.90
41344;DHT22;27089;50.022;7.604;2023-02-22T05:04:32;1.60;99.90
41344;DHT22;27089;50.022;7.604;2023-02-22T05:06:59;1.60;99.90
41344;DHT22;27089;50.022;7.604;2023-02-22T05:09:27;1.60;99.90
41344;DHT22;27089;50.022;7.604;2023-02-22T05:11:54;1.60;99.90
41344;DHT22;27089;50.022;7.604;2023-02-22T05:14:21;1.50;99.90
41344;DHT22;27089;50.022;7.604;2023-02-22T05:16:53;1.50;99.90
41344;DHT22;27089;50.022;7.604;2023-02-22T05:19:20;1.50;99.90
41344;DHT22;27089;50.022;7.604;2023-02-22T05:21:48;1.50;99.90
41344;DHT22;27089;50.022;7.604;2023-02-22T05:24:15;1.50;99.90
41344;DHT22;27089;50.022;7.604;2023-02-22T05:26:42;1.50;99.90
41344;DHT22;27089;50.022;7.604;2023-02-22T05:29:10;1.50;99.90
41344;DHT22;27089;50.022;7.604;2023-02-22T05:31:37;1.50;99.90
41344;DHT22;27089;50.022;7.604;2023-02-22T05:34:07;1.50;99.90
41344;DHT22;27089;50.022;7.604;2023-02-22T05:36:34;1.40;99.90
41344;DHT22;27089;50.022;7.604;2023-02-22T05:39:01;1.50;99.90
41344;DHT22;27089;50.022;7.604;2023-02-22T05:41:36;1.50;99.90
41344;DHT22;27089;50.022;7.604;2023-02-22T05:44:21;1.50;99.90
41344;DHT22;27089;50.022;7.604;2023-02-22T05:46:55;1.50;99.90
41344;DHT22;27089;50.022;7.604;2023-02-22T05:49:23;1.50;99.90
41344;DHT22;27089;50.022;7.604;2023-02-22T05:51:52;1.60;99.90
41344;DHT22;27089;50.022;7.604;2023-02-22T05:54:21;1.60;99.90
41344;DHT22;27089;50.022;7.604;2023-02-22T05:56:48;1.60;99.90
41344;DHT22;27089;50.022;7.604;2023-02-22T05:59:15;1.60;99.90
41344;DHT22;27089;50.022;7.604;2023-02-22T06:01:43;1.60;99.90
41344;DHT22;27089;50.022;7.604;2023-02-22T06:04:11;1.60;99.90
41344;DHT22;27089;50.022;7.604;2023-02-22T06:06:44;1.60;99.90
41344;DHT22;27089;50.022;7.604;2023-02-22T06:09:11;1.60;99.90
41344;DHT22;27089;50.022;7.604;2023-02-22T06:11:38;1.50;99.90
41344;DHT22;27089;50.022;7.604;2023-02-22T06:14:05;1.50;99.90
41344;DHT22;27089;50.022;7.604;2023-02-22T06:16:33;1.50;99.90
41344;DHT22;27089;50.022;7.604;2023-02-22T06:19:00;1.50;99.90
41344;DHT22;27089;50.022;7.604;2023-02-22T06:21:28;1.50;99.90
41344;DHT22;27089;50.022;7.604;2023-02-22T06:23:56;1.50;99.90
41344;DHT22;27089;50.022;7.604;2023-02-22T06:26:23;1.50;99.90
41344;DHT22;27089;50.022;7.604;2023-02-22T06:28:50;1.40;99.90
41344;DHT22;27089;50.022;7.604;2023-02-22T06:31:18;1.40;99.90
41344;DHT22;27089;50.022;7.604;2023-02-22T06:33:46;1.40;99.90
41344;DHT22;27089;50.022;7.604;2023-02-22T06:36:18;1.40;99.90
41344;DHT22;27089;50.022;7.604;2023-02-22T06:38:46;1.40;99.90
41344;DHT22;27089;50.022;7.604;2023-02-22T06:41:15;1.40;99.90
41344;DHT22;27089;50.022;7.604;2023-02-22T06:43:42;1.40;99.90
41344;DHT22;27089;50.022;7.604;2023-02-22T06:46:09;1.40;99.90
41344;DHT22;27089;50.022;7.604;2023-02-22T06:48:37;1.40;99.90
41344;DHT22;27089;50.022;7.604;2023-02-22T06:51:04;1.50;99.90
41344;DHT22;27089;50.022;7.604;2023-02-22T06:53:33;1.50;99.90
41344;DHT22;27089;50.022;7.604;2023-02-22T06:56:00;1.50;99.90
41344;DHT22;27089;50.022;7.604;2023-02-22T06:58:29;1.60;99.90
41344;DHT22;27089;50.022;7.604;2023-02-22T07:00:58;1.60;99.90
41344;DHT22;27089;50.022;7.604;2023-02-22T07:03:27;1.70;99.90
41344;DHT22;27089;50.022;7.604;2023-02-22T07:05:54;1.80;99.90
41344;DHT22;27089;50.022;7.604;2023-02-22T07:08:21;1.90;99.90
41344;DHT22;27089;50.022;7.604;2023-02-22T07:10:48;2.00;99.90
41344;DHT22;27089;50.022;7.604;2023-02-22T07:13:17;2.10;99.90
41344;DHT22;27089;50.022;7.604;2023-02-22T07:15:45;2.20;99.90
41344;DHT22;27089;50.022;7.604;2023-02-22T07:18:12;2.30;99.90
41344;DHT22;27089;50.022;7.604;2023-02-22T07:20:41;2.50;99.90
41344;DHT22;27089;50.022;7.604;2023-02-22T07:23:08;2.60;99.90
41344;DHT22;27089;50.022;7.604;2023-02-22T07:25:35;2.70;99.90
41344;DHT22;27089;50.022;7.604;2023-02-22T07:28:02;2.90;99.90
41344;DHT22;27089;50.022;7.604;2023-02-22T07:30:32;3.10;99.90
41344;DHT22;27089;50.022;7.604;2023-02-22T07:33:05;3.30;99.90
41344;DHT22;27089;50.022;7.604;2023-02-22T07:35:34;3.50;99.90
41344;DHT22;27089;50.022;7.604;2023-02-22T07:38:02;3.60;99.90
41344;DHT22;27089;50.022;7.604;2023-02-22T07:40:30;3.60;99.90
41344;DHT22;27089;50.022;7.604;2023-02-22T07:42:59;3.60;99.90
41344;DHT22;27089;50.022;7.604;2023-02-22T07:45:27;3.70;99.90
41344;DHT22;27089;50.022;7.604;2023-02-22T07:47:54;3.80;99.90
41344;DHT22;27089;50.022;7.604;2023-02-22T07:50:24;3.80;99.90
41344;DHT22;27089;50.022;7.604;2023-02-22T07:52:54;3.80;99.90
41344;DHT22;27089;50.022;7.604;2023-02-22T07:55:24;3.80;99.90
41344;DHT22;27089;50.022;7.604;2023-02-22T07:57:53;3.90;99.90
41344;DHT22;27089;50.022;7.604;2023-02-22T08:00:23;3.90;99.90
41344;DHT22;27089;50.022;7.604;2023-02-22T08:02:51;4.00;99.90
41344;DHT22;27089;50.022;7.604;2023-02-22T08:05:20;4.20;99.90
41344;DHT22;27089;50.022;7.604;2023-02-22T08:07:49;4.40;99.90
41344;DHT22;27089;50.022;7.604;2023-02-22T08:10:18;4.50;99.90
41344;DHT22;27089;50.022;7.604;2023-02-22T08:12:47;4.50;99.90
41344;DHT22;27089;50.022;7.604;2023-02-22T08:15:17;4.60;99.90
41344;DHT22;27089;50.022;7.604;2023-02-22T08:17:44;4.70;99.90
41344;DHT22;27089;50.022;7.604;2023-02-22T08:20:12;4.80;99.90
41344;DHT22;27089;50.022;7.604;2023-02-22T08:22:42;5.00;99.90
41344;DHT22;27089;50.022;7.604;2023-02-22T08:25:13;5.10;99.90
41344;DHT22;27089;50.022;7.604;2023-02-22T08:27:41;5.10;99.90
41344;DHT22;27089;50.022;7.604;2023-02-22T08:30:14;5.20;99.90
41344;DHT22;27089;50.022;7.604;2023-02-22T08:32:41;5.40;99.90
41344;DHT22;27089;50.022;7.604;2023-02-22T08:35:09;5.40;99.90
41344;DHT22;27089;50.022;7.604;2023-02-22T08:37:41;5.50;99.90
41344;DHT22;27089;50.022;7.604;2023-02-22T08:40:11;5.50;99.90
41344;DHT22;27089;50.022;7.604;2023-02-22T08:42:41;5.60;99.90
41344;DHT22;27089;50.022;7.604;2023-02-22T08:45:09;5.80;99.90
41344;DHT22;27089;50.022;7.604;2023-02-22T08:47:38;5.90;99.90
41344;DHT22;27089;50.022;7.604;2023-02-22T08:50:06;6.00;99.90
41344;DHT22;27089;50.022;7.604;2023-02-22T08:52:33;6.20;99.90
41344;DHT22;27089;50.022;7.604;2023-02-22T08:55:00;6.30;99.90
41344;DHT22;27089;50.022;7.604;2023-02-22T08:57:29;6.60;99.90
41344;DHT22;27089;50.022;7.604;2023-02-22T08:59:57;6.70;99.90
41344;DHT22;27089;50.022;7.604;2023-02-22T09:02:24;7.00;99.90
41344;DHT22;27089;50.022;7.604;2023-02-22T09:04:52;7.20;99.90
41344;DHT22;27089;50.022;7.604;2023-02-22T09:07:19;7.60;99.90
41344;DHT22;27089;50.022;7.604;2023-02-22T09:09:46;7.90;99.90
41344;DHT22;27089;50.022;7.604;2023-02-22T09:12:14;8.40;99.90
41344;DHT22;27089;50.022;7.604;2023-02-22T09:14:42;8.90;99.90
41344;DHT22;27089;50.022;7.604;2023-02-22T09:17:09;9.40;99.90
41344;DHT22;27089;50.022;7.604;2023-02-22T09:19:36;9.50;99.90
41344;DHT22;27089;50.022;7.604;2023-02-22T09:22:05;9.60;99.90
41344;DHT22;27089;50.022;7.604;2023-02-22T09:24:32;9.80;99.90
41344;DHT22;27089;50.022;7.604;2023-02-22T09:26:59;9.90;99.90
41344;DHT22;27089;50.022;7.604;2023-02-22T09:29:29;10.10;99.90
41344;DHT22;27089;50.022;7.604;2023-02-22T09:31:57;10.30;99.90
41344;DHT22;27089;50.022;7.604;2023-02-22T09:34:24;10.40;99.90
41344;DHT22;27089;50.022;7.604;2023-02-22T09:36:54;10.60;99.90
41344;DHT22;27089;50.022;7.604;2023-02-22T09:39:22;10.90;99.90
41344;DHT22;27089;50.022;7.604;2023-02-22T09:41:54;11.20;99.90
41344;DHT22;27089;50.022;7.604;2023-02-22T09:44:28;11.60;99.90
41344;DHT22;27089;50.022;7.604;2023-02-22T09:47:03;11.70;99.90
41344;DHT22;27089;50.022;7.604;2023-02-22T09:49:37;11.80;99.90
41344;DHT22;27089;50.022;7.604;2023-02-22T09:52:11;12.10;99.90
41344;DHT22;27089;50.022;7.604;2023-02-22T09:54:41;12.30;99.90
41344;DHT22;27089;50.022;7.604;2023-02-22T09:57:13;12.50;99.90
41344;DHT22;27089;50.022;7.604;2023-02-22T09:59:44;12.50;99.90
41344;DHT22;27089;50.022;7.604;2023-02-22T10:02:24;12.50;99.90
41344;DHT22;27089;50.022;7.604;2023-02-22T10:04:58;12.40;99.90
41344;DHT22;27089;50.022;7.604;2023-02-22T10:07:31;12.30;99.90
41344;DHT22;27089;50.022;7.604;2023-02-22T10:09:59;12.40;99.90
41344;DHT22;27089;50.022;7.604;2023-02-22T10:12:37;12.70;99.90
41344;DHT22;27089;50.022;7.604;2023-02-22T10:15:35;12.80;99.90
41344;DHT22;27089;50.022;7.604;2023-02-22T10:18:20;13.20;99.90
41344;DHT22;27089;50.022;7.604;2023-02-22T10:20:59;13.40;99.90
41344;DHT22;27089;50.022;7.604;2023-02-22T10:23:32;13.50;99.90
41344;DHT22;27089;50.022;7.604;2023-02-22T10:26:13;13.70;99.90
41344;DHT22;27089;50.022;7.604;2023-02-22T10:28:45;13.90;99.90
41344;DHT22;27089;50.022;7.604;2023-02-22T10:31:20;14.10;99.90
41344;DHT22;27089;50.022;7.604;2023-02-22T10:33:56;14.20;99.90
41344;DHT22;27089;50.022;7.604;2023-02-22T10:36:25;14.40;99.90
41344;DHT22;27089;50.022;7.604;2023-02-22T10:38:55;14.50;99.90
41344;DHT22;27089;50.022;7.604;2023-02-22T10:41:28;14.50;99.90
41344;DHT22;27089;50.022;7.604;2023-02-22T10:43:56;14.50;99.90
41344;DHT22;27089;50.022;7.604;2023-02-22T10:46:25;14.60;99.90
41344;DHT22;27089;50.022;7.604;2023-02-22T10:48:59;14.80;99.90
41344;DHT22;27089;50.022;7.604;2023-02-22T10:51:27;15.10;99.90
41344;DHT22;27089;50.022;7.604;2023-02-22T10:54:01;15.20;99.90
41344;DHT22;27089;50.022;7.604;2023-02-22T10:56:46;15.10;99.90
41344;DHT22;27089;50.022;7.604;2023-02-22T10:59:25;15.00;99.90
41344;DHT22;27089;50.022;7.604;2023-02-22T11:01:54;14.80;99.90
41344;DHT22;27089;50.022;7.604;2023-02-22T11:04:22;14.70;99.90
41344;DHT22;27089;50.022;7.604;2023-02-22T11:07:07;14.50;99.90
41344;DHT22;27089;50.022;7.604;2023-02-22T11:09:45;14.50;99.90
41344;DHT22;27089;50.022;7.604;2023-02-22T11:12:18;14.60;99.90
41344;DHT22;27089;50.022;7.604;2023-02-22T11:14:45;14.80;99.90
41344;DHT22;27089;50.022;7.604;2023-02-22T11:17:17;15.10;99.90
41344;DHT22;27089;50.022;7.604;2023-02-22T11:19:49;15.40;99.90
41344;DHT22;27089;50.022;7.604;2023-02-22T11:22:22;15.70;99.90
41344;DHT22;27089;50.022;7.604;2023-02-22T11:24:52;16.00;99.90
41344;DHT22;27089;50.022;7.604;2023-02-22T11:27:26;16.20;99.90
41344;DHT22;27089;50.022;7.604;2023-02-22T11:29:56;16.20;99.90
41344;DHT22;27089;50.022;7.604;2023-02-22T11:32:32;16.10;99.90
41344;DHT22;27089;50.022;7.604;2023-02-22T11:35:21;15.80;99.90
41344;DHT22;27089;50.022;7.604;2023-02-22T11:38:09;15.50;99.90
41344;DHT22;27089;50.022;7.604;2023-02-22T11:40:37;15.20;99.90
41344;DHT22;27089;50.022;7.604;2023-02-22T11:43:09;15.00;99.90
41344;DHT22;27089;50.022;7.604;2023-02-22T11:45:39;14.80;99.90
41344;DHT22;27089;50.022;7.604;2023-02-22T11:48:26;14.70;99.90
41344;DHT22;27089;50.022;7.604;2023-02-22T11:51:11;14.50;99.90
41344;DHT22;27089;50.022;7.604;2023-02-22T11:56:34;14.60;99.90
41344;DHT22;27089;50.022;7.604;2023-02-22T11:59:11;14.70;99.90
41344;DHT22;27089;50.022;7.604;2023-02-22T12:01:47;14.70;99.90
41344;DHT22;27089;50.022;7.604;2023-02-22T12:04:42;14.70;99.90
41344;DHT22;27089;50.022;7.604;2023-02-22T12:07:22;14.80;99.90
41344;DHT22;27089;50.022;7.604;2023-02-22T12:09:58;14.90;99.90
41344;DHT22;27089;50.022;7.604;2023-02-22T12:12:34;15.00;99.90
41344;DHT22;27089;50.022;7.604;2023-02-22T12:15:12;15.00;99.90
41344;DHT22;27089;50.022;7.604;2023-02-22T12:17:48;15.10;99.90
41344;DHT22;27089;50.022;7.604;2023-02-22T12:20:20;15.10;99.90
41344;DHT22;27089;50.022;7.604;2023-02-22T12:22:57;15.10;99.90
41344;DHT22;27089;50.022;7.604;2023-02-22T12:25:29;15.20;99.90
41344;DHT22;27089;50.022;7.604;2023-02-22T12:28:01;15.30;99.90
41344;DHT22;27089;50.022;7.604;2023-02-22T12:30:32;15.30;99.90
41344;DHT22;27089;50.022;7.604;2023-02-22T12:33:04;15.40;99.90
41344;DHT22;27089;50.022;7.604;2023-02-22T12:35:36;15.50;99.90
41344;DHT22;27089;50.022;7.604;2023-02-22T12:38:12;15.50;99.90
41344;DHT22;27089;50.022;7.604;2023-02-22T12:40:46;15.60;99.90
41344;DHT22;27089;50.022;7.604;2023-02-22T12:43:23;15.60;99.90
41344;DHT22;27089;50.022;7.604;2023-02-22T12:45:58;15.60;99.90
41344;DHT22;27089;50.022;7.604;2023-02-22T12:48:34;15.60;99.90
41344;DHT22;27089;50.022;7.604;2023-02-22T12:51:16;15.60;99.90
41344;DHT22;27089;50.022;7.604;2023-02-22T12:53:55;15.50;99.90
41344;DHT22;27089;50.022;7.604;2023-02-22T12:56:29;15.40;99.90
41344;DHT22;27089;50.022;7.604;2023-02-22T12:59:02;15.30;99.90
41344;DHT22;27089;50.022;7.604;2023-02-22T13:01:36;15.20;99.90
41344;DHT22;27089;50.022;7.604;2023-02-22T13:04:05;15.10;99.90
41344;DHT22;27089;50.022;7.604;2023-02-22T13:06:44;15.10;99.90
41344;DHT22;27089;50.022;7.604;2023-02-22T13:09:32;15.10;99.90
41344;DHT22;27089;50.022;7.604;2023-02-22T13:12:08;15.00;99.90
41344;DHT22;27089;50.022;7.604;2023-02-22T13:14:48;14.90;99.90
41344;DHT22;27089;50.022;7.604;2023-02-22T13:17:23;14.90;99.90
41344;DHT22;27089;50.022;7.604;2023-02-22T13:19:57;14.90;99.90
41344;DHT22;27089;50.022;7.604;2023-02-22T13:22:31;14.80;99.90
41344;DHT22;27089;50.022;7.604;2023-02-22T13:25:09;14.90;99.90
41344;DHT22;27089;50.022;7.604;2023-02-22T13:27:42;14.90;99.90
41344;DHT22;27089;50.022;7.604;2023-02-22T13:30:19;14.90;99.90
41344;DHT22;27089;50.022;7.604;2023-02-22T13:33:02;14.90;99.90
41344;DHT22;27089;50.022;7.604;2023-02-22T13:35:40;14.80;99.90
41344;DHT22;27089;50.022;7.604;2023-02-22T13:38:36;14.80;99.90
41344;DHT22;27089;50.022;7.604;2023-02-22T13:41:42;14.70;99.90
41344;DHT22;27089;50.022;7.604;2023-02-22T13:47:30;14.50;99.90
41344;DHT22;27089;50.022;7.604;2023-02-22T13:50:26;14.50;99.90
41344;DHT22;27089;50.022;7.604;2023-02-22T13:52:56;14.50;99.90
41344;DHT22;27089;50.022;7.604;2023-02-22T13:55:27;14.50;99.90
41344;DHT22;27089;50.022;7.604;2023-02-22T13:58:02;14.60;99.90
41344;DHT22;27089;50.022;7.604;2023-02-22T14:00:46;14.60;99.90
41344;DHT22;27089;50.022;7.604;2023-02-22T14:03:33;14.60;99.90
41344;DHT22;27089;50.022;7.604;2023-02-22T14:06:05;14.70;99.90
41344;DHT22;27089;50.022;7.604;2023-02-22T14:08:40;14.70;99.90
41344;DHT22;27089;50.022;7.604;2023-02-22T14:14:23;14.60;99.90
41344;DHT22;27089;50.022;7.604;2023-02-22T14:22:54;14.40;99.90
41344;DHT22;27089;50.022;7.604;2023-02-22T14:25:30;14.40;99.90
41344;DHT22;27089;50.022;7.604;2023-02-22T14:27:58;14.40;99.90
41344;DHT22;27089;50.022;7.604;2023-02-22T14:30:30;14.30;99.90
41344;DHT22;27089;50.022;7.604;2023-02-22T14:32:58;14.30;99.90
41344;DHT22;27089;50.022;7.604;2023-02-22T14:35:31;14.10;99.90
41344;DHT22;27089;50.022;7.604;2023-02-22T14:38:02;14.10;99.90
41344;DHT22;27089;50.022;7.604;2023-02-22T14:40:32;14.00;99.90
41344;DHT22;27089;50.022;7.604;2023-02-22T14:43:03;14.00;99.90
41344;DHT22;27089;50.022;7.604;2023-02-22T14:45:35;14.00;99.90
41344;DHT22;27089;50.022;7.604;2023-02-22T14:48:17;14.00;99.90
41344;DHT22;27089;50.022;7.604;2023-02-22T14:50:51;13.90;99.90
41344;DHT22;27089;50.022;7.604;2023-02-22T14:53:23;13.90;99.90
41344;DHT22;27089;50.022;7.604;2023-02-22T14:55:55;13.90;99.90
41344;DHT22;27089;50.022;7.604;2023-02-22T14:58:27;13.90;99.90
41344;DHT22;27089;50.022;7.604;2023-02-22T15:00:56;13.80;99.90
41344;DHT22;27089;50.022;7.604;2023-02-22T15:03:29;13.70;99.90
41344;DHT22;27089;50.022;7.604;2023-02-22T15:06:04;13.70;99.90
41344;DHT22;27089;50.022;7.604;2023-02-22T15:08:32;13.60;99.90
41344;DHT22;27089;50.022;7.604;2023-02-22T15:11:00;13.50;99.90
41344;DHT22;27089;50.022;7.604;2023-02-22T15:13:30;13.40;99.90
41344;DHT22;27089;50.022;7.604;2023-02-22T15:16:02;13.30;99.90
41344;DHT22;27089;50.022;7.604;2023-02-22T15:18:36;13.20;99.90
41344;DHT22;27089;50.022;7.604;2023-02-22T15:21:07;13.20;99.90
41344;DHT22;27089;50.022;7.604;2023-02-22T15:23:41;13.10;99.90
41344;DHT22;27089;50.022;7.604;2023-02-22T15:26:16;13.10;99.90
41344;DHT22;27089;50.022;7.604;2023-02-22T15:28:44;13.10;99.90
41344;DHT22;27089;50.022;7.604;2023-02-22T15:31:22;13.00;99.90
41344;DHT22;27089;50.022;7.604;2023-02-22T15:33:49;13.00;99.90
41344;DHT22;27089;50.022;7.604;2023-02-22T15:36:20;13.00;99.90
41344;DHT22;27089;50.022;7.604;2023-02-22T15:38:49;12.90;99.90
41344;DHT22;27089;50.022;7.604;2023-02-22T15:41:25;12.90;99.90
41344;DHT22;27089;50.022;7.604;2023-02-22T15:43:58;12.90;99.90
41344;DHT22;27089;50.022;7.604;2023-02-22T15:46:27;12.80;99.90
41344;DHT22;27089;50.022;7.604;2023-02-22T15:49:05;12.70;99.90
41344;DHT22;27089;50.022;7.604;2023-02-22T15:51:33;12.70;99.90
41344;DHT22;27089;50.022;7.604;2023-02-22T15:54:02;12.60;99.90
41344;DHT22;27089;50.022;7.604;2023-02-22T15:56:31;12.60;99.90
41344;DHT22;27089;50.022;7.604;2023-02-22T15:59:02;12.50;99.90
41344;DHT22;27089;50.022;7.604;2023-02-22T16:01:38;12.50;99.90
41344;DHT22;27089;50.022;7.604;2023-02-22T16:04:06;12.40;99.90
41344;DHT22;27089;50.022;7.604;2023-02-22T16:06:41;12.30;99.90
41344;DHT22;27089;50.022;7.604;2023-02-22T16:09:10;12.30;99.90
41344;DHT22;27089;50.022;7.604;2023-02-22T16:11:40;12.20;99.90
41344;DHT22;27089;50.022;7.604;2023-02-22T16:14:24;12.20;99.90
41344;DHT22;27089;50.022;7.604;2023-02-22T16:17:22;12.10;99.90
41344;DHT22;27089;50.022;7.604;2023-02-22T16:19:54;12.10;99.90
41344;DHT22;27089;50.022;7.604;2023-02-22T16:22:27;12.00;99.90
41344;DHT22;27089;50.022;7.604;2023-02-22T16:25:12;11.90;99.90
41344;DHT22;27089;50.022;7.604;2023-02-22T16:27:41;11.80;99.90
41344;DHT22;27089;50.022;7.604;2023-02-22T16:30:23;11.70;99.90
41344;DHT22;27089;50.022;7.604;2023-02-22T16:32:53;11.70;99.90